sensor_id;sensor_type;location;lat;lon;timestamp;temperature;humidity
59148;DHT22;44930;52.878;6.168;2022-09-03T00:00:18;18.40;92.60
59148;DHT22;44930;52.878;6.168;2022-09-03T00:02:48;18.40;92.50
59148;DHT22;44930;52.878;6.168;2022-09-03T00:11:03;18.50;92.20
59148;DHT22;44930;52.878;6.168;2022-09-03T00:13:36;17.50;91.90
59148;DHT22;44930;52.878;6.168;2022-09-03T00:16:06;18.70;92.70
59148;DHT22;44930;52.878;6.168;2022-09-03T00:18:42;18.30;92.60
59148;DHT22;44930;52.878;6.168;2022-09-03T00:21:16;17.80;92.50
59148;DHT22;44930;52.878;6.168;2022-09-03T00:23:43;17.70;92.60
59148;DHT22;44930;52.878;6.168;2022-09-03T00:28:56;18.00;92.90
59148;DHT22;44930;52.878;6.168;2022-09-03T00:31:34;17.90;92.40
59148;DHT22;44930;52.878;6.168;2022-09-03T00:34:30;17.90;93.00
59148;DHT22;44930;52.878;6.168;2022-09-03T00:36:57;17.80;92.40
59148;DHT22;44930;52.878;6.168;2022-09-03T00:39:24;18.00;92.90
59148;DHT22;44930;52.878;6.168;2022-09-03T00:47:56;17.70;92.60
59148;DHT22;44930;52.878;6.168;2022-09-03T00:54:04;17.70;92.80
59148;DHT22;44930;52.878;6.168;2022-09-03T00:56:51;17.90;92.90
59148;DHT22;44930;52.878;6.168;2022-09-03T00:59:38;17.90;93.40
59148;DHT22;44930;52.878;6.168;2022-09-03T01:11:33;17.50;92.90
59148;DHT22;44930;52.878;6.168;2022-09-03T01:14:21;17.60;92.80
59148;DHT22;44930;52.878;6.168;2022-09-03T01:22:39;17.70;92.90
59148;DHT22;44930;52.878;6.168;2022-09-03T01:28:08;17.70;92.90
59148;DHT22;44930;52.878;6.168;2022-09-03T01:30:40;16.90;92.70
59148;DHT22;44930;52.878;6.168;2022-09-03T01:33:24;18.00;93.40
59148;DHT22;44930;52.878;6.168;2022-09-03T01:36:07;17.70;92.90
59148;DHT22;44930;52.878;6.168;2022-09-03T01:38:52;17.10;93.20
59148;DHT22;44930;52.878;6.168;2022-09-03T01:41:30;17.10;92.80
59148;DHT22;44930;52.878;6.168;2022-09-03T01:47:48;17.80;93.20
59148;DHT22;44930;52.878;6.168;2022-09-03T01:53:24;17.20;92.70
59148;DHT22;44930;52.878;6.168;2022-09-03T01:59:06;17.50;93.10
59148;DHT22;44930;52.878;6.168;2022-09-03T02:01:40;17.20;93.30
59148;DHT22;44930;52.878;6.168;2022-09-03T02:04:17;17.40;93.30
59148;DHT22;44930;52.878;6.168;2022-09-03T02:06:45;17.60;93.60
59148;DHT22;44930;52.878;6.168;2022-09-03T02:09:12;17.20;93.60
59148;DHT22;44930;52.878;6.168;2022-09-03T02:11:38;17.00;93.30
59148;DHT22;44930;52.878;6.168;2022-09-03T02:14:05;17.50;93.40
59148;DHT22;44930;52.878;6.168;2022-09-03T02:16:32;17.60;93.50
59148;DHT22;44930;52.878;6.168;2022-09-03T02:19:08;17.20;93.50
59148;DHT22;44930;52.878;6.168;2022-09-03T02:21:38;16.80;93.50
59148;DHT22;44930;52.878;6.168;2022-09-03T02:24:04;17.40;93.60
59148;DHT22;44930;52.878;6.168;2022-09-03T02:26:31;17.00;93.30
59148;DHT22;44930;52.878;6.168;2022-09-03T02:28:57;17.10;93.40
59148;DHT22;44930;52.878;6.168;2022-09-03T02:31:23;17.20;93.50
59148;DHT22;44930;52.878;6.168;2022-09-03T02:33:49;17.10;93.50
59148;DHT22;44930;52.878;6.168;2022-09-03T02:36:18;17.30;93.60
59148;DHT22;44930;52.878;6.168;2022-09-03T02:38:45;17.10;93.60
59148;DHT22;44930;52.878;6.168;2022-09-03T02:41:12;17.40;93.60
59148;DHT22;44930;52.878;6.168;2022-09-03T02:43:50;16.90;93.50
59148;DHT22;44930;52.878;6.168;2022-09-03T02:46:24;16.70;93.60
59148;DHT22;44930;52.878;6.168;2022-09-03T02:48:52;17.30;93.70
59148;DHT22;44930;52.878;6.168;2022-09-03T02:51:18;16.80;93.60
59148;DHT22;44930;52.878;6.168;2022-09-03T02:53:44;16.90;93.50
59148;DHT22;44930;52.878;6.168;2022-09-03T02:56:09;16.90;93.60
59148;DHT22;44930;52.878;6.168;2022-09-03T02:58:35;17.50;93.80
59148;DHT22;44930;52.878;6.168;2022-09-03T03:01:01;17.30;93.70
59148;DHT22;44930;52.878;6.168;2022-09-03T03:03:26;17.10;93.70
59148;DHT22;44930;52.878;6.168;2022-09-03T03:05:54;17.00;93.60
59148;DHT22;44930;52.878;6.168;2022-09-03T03:08:21;17.40;93.80
59148;DHT22;44930;52.878;6.168;2022-09-03T03:10:54;16.70;93.60
59148;DHT22;44930;52.878;6.168;2022-09-03T03:13:24;17.10;93.90
59148;DHT22;44930;52.878;6.168;2022-09-03T03:15:50;17.60;93.90
59148;DHT22;44930;52.878;6.168;2022-09-03T03:18:15;17.00;93.70
59148;DHT22;44930;52.878;6.168;2022-09-03T03:20:42;17.00;93.80
59148;DHT22;44930;52.878;6.168;2022-09-03T03:23:09;17.30;93.90
59148;DHT22;44930;52.878;6.168;2022-09-03T03:25:36;17.10;93.90
59148;DHT22;44930;52.878;6.168;2022-09-03T03:28:03;17.00;93.90
59148;DHT22;44930;52.878;6.168;2022-09-03T03:30:29;16.70;93.80
59148;DHT22;44930;52.878;6.168;2022-09-03T03:32:56;17.20;93.90
59148;DHT22;44930;52.878;6.168;2022-09-03T03:35:21;16.90;93.90
59148;DHT22;44930;52.878;6.168;2022-09-03T03:37:47;17.00;93.90
59148;DHT22;44930;52.878;6.168;2022-09-03T03:40:13;16.80;93.90
59148;DHT22;44930;52.878;6.168;2022-09-03T03:42:40;17.10;94.00
59148;DHT22;44930;52.878;6.168;2022-09-03T03:45:06;16.90;94.00
59148;DHT22;44930;52.878;6.168;2022-09-03T03:47:32;17.10;93.90
59148;DHT22;44930;52.878;6.168;2022-09-03T03:49:59;16.80;94.00
59148;DHT22;44930;52.878;6.168;2022-09-03T03:52:25;17.40;94.10
59148;DHT22;44930;52.878;6.168;2022-09-03T03:54:52;17.20;94.20
59148;DHT22;44930;52.878;6.168;2022-09-03T03:57:19;17.20;94.20
59148;DHT22;44930;52.878;6.168;2022-09-03T03:59:45;17.40;94.30
59148;DHT22;44930;52.878;6.168;2022-09-03T04:02:11;16.70;94.10
59148;DHT22;44930;52.878;6.168;2022-09-03T04:04:37;17.10;94.30
59148;DHT22;44930;52.878;6.168;2022-09-03T04:07:03;17.00;94.20
59148;DHT22;44930;52.878;6.168;2022-09-03T04:09:28;16.70;94.20
59148;DHT22;44930;52.878;6.168;2022-09-03T04:11:54;16.80;94.10
59148;DHT22;44930;52.878;6.168;2022-09-03T04:14:25;16.80;94.20
59148;DHT22;44930;52.878;6.168;2022-09-03T04:16:52;17.60;94.40
59148;DHT22;44930;52.878;6.168;2022-09-03T04:19:17;16.40;94.20
59148;DHT22;44930;52.878;6.168;2022-09-03T04:21:44;16.60;94.20
59148;DHT22;44930;52.878;6.168;2022-09-03T04:24:10;16.50;94.30
59148;DHT22;44930;52.878;6.168;2022-09-03T04:26:35;16.60;94.30
59148;DHT22;44930;52.878;6.168;2022-09-03T04:29:04;16.00;94.20
59148;DHT22;44930;52.878;6.168;2022-09-03T04:31:30;16.70;94.50
59148;DHT22;44930;52.878;6.168;2022-09-03T04:33:57;16.60;94.50
59148;DHT22;44930;52.878;6.168;2022-09-03T04:36:25;16.50;94.40
59148;DHT22;44930;52.878;6.168;2022-09-03T04:38:52;16.70;94.60
59148;DHT22;44930;52.878;6.168;2022-09-03T04:41:24;16.80;94.70
59148;DHT22;44930;52.878;6.168;2022-09-03T04:43:51;17.00;94.80
59148;DHT22;44930;52.878;6.168;2022-09-03T04:46:17;16.90;95.10
59148;DHT22;44930;52.878;6.168;2022-09-03T04:48:47;16.30;94.60
59148;DHT22;44930;52.878;6.168;2022-09-03T04:51:14;16.20;94.80
59148;DHT22;44930;52.878;6.168;2022-09-03T04:53:42;16.30;94.80
59148;DHT22;44930;52.878;6.168;2022-09-03T04:56:16;16.70;94.90
59148;DHT22;44930;52.878;6.168;2022-09-03T04:58:43;16.40;94.90
59148;DHT22;44930;52.878;6.168;2022-09-03T05:01:19;16.70;95.00
59148;DHT22;44930;52.878;6.168;2022-09-03T05:03:46;16.60;95.20
59148;DHT22;44930;52.878;6.168;2022-09-03T05:06:12;16.60;95.40
59148;DHT22;44930;52.878;6.168;2022-09-03T05:08:39;16.40;95.10
59148;DHT22;44930;52.878;6.168;2022-09-03T05:11:06;16.50;95.20
59148;DHT22;44930;52.878;6.168;2022-09-03T05:13:32;16.40;95.20
59148;DHT22;44930;52.878;6.168;2022-09-03T05:16:05;16.50;95.30
59148;DHT22;44930;52.878;6.168;2022-09-03T05:18:32;16.10;95.30
59148;DHT22;44930;52.878;6.168;2022-09-03T05:21:05;16.20;95.30
59148;DHT22;44930;52.878;6.168;2022-09-03T05:23:34;16.50;95.60
59148;DHT22;44930;52.878;6.168;2022-09-03T05:26:02;16.00;95.30
59148;DHT22;44930;52.878;6.168;2022-09-03T05:28:30;16.10;95.50
59148;DHT22;44930;52.878;6.168;2022-09-03T05:31:07;16.30;95.50
59148;DHT22;44930;52.878;6.168;2022-09-03T05:33:41;15.90;95.70
59148;DHT22;44930;52.878;6.168;2022-09-03T05:36:13;16.10;95.60
59148;DHT22;44930;52.878;6.168;2022-09-03T05:38:39;16.20;95.50
59148;DHT22;44930;52.878;6.168;2022-09-03T05:41:07;16.20;95.70
59148;DHT22;44930;52.878;6.168;2022-09-03T05:43:34;16.10;95.80
59148;DHT22;44930;52.878;6.168;2022-09-03T05:46:02;15.70;95.70
59148;DHT22;44930;52.878;6.168;2022-09-03T05:48:29;15.90;95.90
59148;DHT22;44930;52.878;6.168;2022-09-03T05:51:03;16.00;96.00
59148;DHT22;44930;52.878;6.168;2022-09-03T05:53:30;15.80;96.30
59148;DHT22;44930;52.878;6.168;2022-09-03T05:55:58;15.90;96.00
59148;DHT22;44930;52.878;6.168;2022-09-03T05:58:24;15.80;96.30
59148;DHT22;44930;52.878;6.168;2022-09-03T06:00:51;16.20;96.10
59148;DHT22;44930;52.878;6.168;2022-09-03T06:03:16;16.00;96.20
59148;DHT22;44930;52.878;6.168;2022-09-03T06:05:49;16.10;96.20
59148;DHT22;44930;52.878;6.168;2022-09-03T06:08:15;15.50;96.40
59148;DHT22;44930;52.878;6.168;2022-09-03T06:10:41;16.20;96.40
59148;DHT22;44930;52.878;6.168;2022-09-03T06:13:06;16.00;96.40
59148;DHT22;44930;52.878;6.168;2022-09-03T06:15:32;16.20;96.50
59148;DHT22;44930;52.878;6.168;2022-09-03T06:17:57;15.60;96.70
59148;DHT22;44930;52.878;6.168;2022-09-03T06:20:23;16.00;96.60
59148;DHT22;44930;52.878;6.168;2022-09-03T06:22:52;16.00;96.60
59148;DHT22;44930;52.878;6.168;2022-09-03T06:25:18;15.90;96.50
59148;DHT22;44930;52.878;6.168;2022-09-03T06:27:44;16.00;96.60
59148;DHT22;44930;52.878;6.168;2022-09-03T06:30:10;16.30;96.60
59148;DHT22;44930;52.878;6.168;2022-09-03T06:32:49;16.20;96.50
59148;DHT22;44930;52.878;6.168;2022-09-03T06:35:15;16.50;96.80
59148;DHT22;44930;52.878;6.168;2022-09-03T06:37:41;16.50;96.60
59148;DHT22;44930;52.878;6.168;2022-09-03T06:40:08;17.00;96.70
59148;DHT22;44930;52.878;6.168;2022-09-03T06:42:40;16.50;96.30
59148;DHT22;44930;52.878;6.168;2022-09-03T06:45:07;16.90;96.50
59148;DHT22;44930;52.878;6.168;2022-09-03T06:47:33;16.40;96.30
59148;DHT22;44930;52.878;6.168;2022-09-03T06:49:59;17.10;96.50
59148;DHT22;44930;52.878;6.168;2022-09-03T06:52:29;16.70;96.30
59148;DHT22;44930;52.878;6.168;2022-09-03T06:54:54;16.80;95.90
59148;DHT22;44930;52.878;6.168;2022-09-03T06:57:20;16.60;96.30
59148;DHT22;44930;52.878;6.168;2022-09-03T06:59:46;17.30;96.40
59148;DHT22;44930;52.878;6.168;2022-09-03T07:02:11;17.10;96.30
59148;DHT22;44930;52.878;6.168;2022-09-03T07:04:37;17.10;96.30
59148;DHT22;44930;52.878;6.168;2022-09-03T07:07:03;16.60;96.20
59148;DHT22;44930;52.878;6.168;2022-09-03T07:09:28;16.90;96.30
59148;DHT22;44930;52.878;6.168;2022-09-03T07:11:54;17.00;96.40
59148;DHT22;44930;52.878;6.168;2022-09-03T07:14:20;17.00;96.40
59148;DHT22;44930;52.878;6.168;2022-09-03T07:16:48;16.80;96.30
59148;DHT22;44930;52.878;6.168;2022-09-03T07:19:14;17.20;96.50
59148;DHT22;44930;52.878;6.168;2022-09-03T07:21:40;17.30;96.50
59148;DHT22;44930;52.878;6.168;2022-09-03T07:24:06;17.10;96.40
59148;DHT22;44930;52.878;6.168;2022-09-03T07:26:37;17.00;96.30
59148;DHT22;44930;52.878;6.168;2022-09-03T07:29:04;17.30;96.50
59148;DHT22;44930;52.878;6.168;2022-09-03T07:31:36;17.00;96.30
59148;DHT22;44930;52.878;6.168;2022-09-03T07:34:08;17.50;96.40
59148;DHT22;44930;52.878;6.168;2022-09-03T07:36:39;17.40;96.30
59148;DHT22;44930;52.878;6.168;2022-09-03T07:39:09;17.50;96.30
59148;DHT22;44930;52.878;6.168;2022-09-03T07:41:35;17.60;96.30
59148;DHT22;44930;52.878;6.168;2022-09-03T07:44:02;17.40;96.10
59148;DHT22;44930;52.878;6.168;2022-09-03T07:46:31;17.60;96.10
59148;DHT22;44930;52.878;6.168;2022-09-03T07:48:58;17.20;96.10
59148;DHT22;44930;52.878;6.168;2022-09-03T07:51:28;17.20;96.00
59148;DHT22;44930;52.878;6.168;2022-09-03T07:54:00;17.40;95.90
59148;DHT22;44930;52.878;6.168;2022-09-03T07:56:31;18.20;95.50
59148;DHT22;44930;52.878;6.168;2022-09-03T07:58:57;17.80;95.80
59148;DHT22;44930;52.878;6.168;2022-09-03T08:01:25;18.10;95.80
59148;DHT22;44930;52.878;6.168;2022-09-03T08:03:53;17.90;95.80
59148;DHT22;44930;52.878;6.168;2022-09-03T08:06:21;18.10;95.70
59148;DHT22;44930;52.878;6.168;2022-09-03T08:08:47;18.60;95.80
59148;DHT22;44930;52.878;6.168;2022-09-03T08:11:17;18.00;95.50
59148;DHT22;44930;52.878;6.168;2022-09-03T08:13:52;18.50;95.00
59148;DHT22;44930;52.878;6.168;2022-09-03T08:16:19;18.40;95.60
59148;DHT22;44930;52.878;6.168;2022-09-03T08:18:44;18.80;95.70
59148;DHT22;44930;52.878;6.168;2022-09-03T08:21:17;18.80;95.40
59148;DHT22;44930;52.878;6.168;2022-09-03T08:23:52;18.60;95.20
59148;DHT22;44930;52.878;6.168;2022-09-03T08:26:20;18.60;94.50
59148;DHT22;44930;52.878;6.168;2022-09-03T08:28:46;18.80;94.80
59148;DHT22;44930;52.878;6.168;2022-09-03T08:31:22;18.80;94.50
59148;DHT22;44930;52.878;6.168;2022-09-03T08:33:51;18.80;94.40
59148;DHT22;44930;52.878;6.168;2022-09-03T08:36:26;18.80;94.40
59148;DHT22;44930;52.878;6.168;2022-09-03T08:38:54;19.20;93.90
59148;DHT22;44930;52.878;6.168;2022-09-03T08:47:11;19.80;93.60
59148;DHT22;44930;52.878;6.168;2022-09-03T08:49:57;19.90;93.80
59148;DHT22;44930;52.878;6.168;2022-09-03T08:52:41;20.10;93.90
59148;DHT22;44930;52.878;6.168;2022-09-03T08:58:16;20.30;93.00
59148;DHT22;44930;52.878;6.168;2022-09-03T09:01:03;20.30;93.30
59148;DHT22;44930;52.878;6.168;2022-09-03T09:06:42;20.30;92.80
59148;DHT22;44930;52.878;6.168;2022-09-03T09:12:20;20.40;92.50
59148;DHT22;44930;52.878;6.168;2022-09-03T09:15:11;21.10;92.80
59148;DHT22;44930;52.878;6.168;2022-09-03T09:18:02;21.00;92.50
59148;DHT22;44930;52.878;6.168;2022-09-03T09:20:49;20.50;93.10
59148;DHT22;44930;52.878;6.168;2022-09-03T09:23:23;21.20;92.20
59148;DHT22;44930;52.878;6.168;2022-09-03T09:25:53;20.90;92.60
59148;DHT22;44930;52.878;6.168;2022-09-03T09:28:21;21.60;92.60
59148;DHT22;44930;52.878;6.168;2022-09-03T09:30:48;21.10;91.90
59148;DHT22;44930;52.878;6.168;2022-09-03T09:33:15;21.30;92.10
59148;DHT22;44930;52.878;6.168;2022-09-03T09:35:42;22.10;92.20
59148;DHT22;44930;52.878;6.168;2022-09-03T09:38:09;21.10;91.90
59148;DHT22;44930;52.878;6.168;2022-09-03T09:40:37;21.70;92.00
59148;DHT22;44930;52.878;6.168;2022-09-03T09:45:50;21.80;91.00
59148;DHT22;44930;52.878;6.168;2022-09-03T09:50:42;21.80;91.40
59148;DHT22;44930;52.878;6.168;2022-09-03T09:53:09;22.00;91.30
59148;DHT22;44930;52.878;6.168;2022-09-03T09:55:52;22.50;91.20
59148;DHT22;44930;52.878;6.168;2022-09-03T09:58:24;23.10;90.40
59148;DHT22;44930;52.878;6.168;2022-09-03T10:01:10;22.50;90.70
59148;DHT22;44930;52.878;6.168;2022-09-03T10:03:53;22.70;90.10
59148;DHT22;44930;52.878;6.168;2022-09-03T10:06:26;22.90;90.20
59148;DHT22;44930;52.878;6.168;2022-09-03T10:11:43;23.30;90.30
59148;DHT22;44930;52.878;6.168;2022-09-03T10:14:23;23.70;90.10
59148;DHT22;44930;52.878;6.168;2022-09-03T10:16:55;23.20;88.00
59148;DHT22;44930;52.878;6.168;2022-09-03T10:19:30;23.20;89.20
59148;DHT22;44930;52.878;6.168;2022-09-03T10:22:09;23.20;89.30
59148;DHT22;44930;52.878;6.168;2022-09-03T10:24:51;23.40;89.60
59148;DHT22;44930;52.878;6.168;2022-09-03T10:27:20;23.60;87.40
59148;DHT22;44930;52.878;6.168;2022-09-03T10:29:47;23.60;88.00
59148;DHT22;44930;52.878;6.168;2022-09-03T10:32:23;23.80;88.10
59148;DHT22;44930;52.878;6.168;2022-09-03T10:37:54;23.40;85.50
59148;DHT22;44930;52.878;6.168;2022-09-03T10:46:05;24.60;84.90
59148;DHT22;44930;52.878;6.168;2022-09-03T10:51:42;24.10;84.40
59148;DHT22;44930;52.878;6.168;2022-09-03T11:02:37;25.00;82.60
59148;DHT22;44930;52.878;6.168;2022-09-03T11:05:19;25.00;82.50
59148;DHT22;44930;52.878;6.168;2022-09-03T11:10:45;25.30;84.00
59148;DHT22;44930;52.878;6.168;2022-09-03T11:13:26;25.20;81.90
59148;DHT22;44930;52.878;6.168;2022-09-03T11:16:10;25.50;81.60
59148;DHT22;44930;52.878;6.168;2022-09-03T11:18:50;25.00;78.90
59148;DHT22;44930;52.878;6.168;2022-09-03T11:21:21;25.10;79.30
59148;DHT22;44930;52.878;6.168;2022-09-03T11:24:08;25.10;79.30
59148;DHT22;44930;52.878;6.168;2022-09-03T11:26:38;25.50;78.90
59148;DHT22;44930;52.878;6.168;2022-09-03T11:31:57;25.30;80.00
59148;DHT22;44930;52.878;6.168;2022-09-03T11:36:51;25.30;78.50
59148;DHT22;44930;52.878;6.168;2022-09-03T11:42:00;25.90;78.70
59148;DHT22;44930;52.878;6.168;2022-09-03T11:44:41;26.10;77.50
59148;DHT22;44930;52.878;6.168;2022-09-03T11:47:35;26.10;77.20
59148;DHT22;44930;52.878;6.168;2022-09-03T11:50:21;25.90;78.30
59148;DHT22;44930;52.878;6.168;2022-09-03T11:52:54;25.90;77.80
59148;DHT22;44930;52.878;6.168;2022-09-03T11:55:32;25.90;76.00
59148;DHT22;44930;52.878;6.168;2022-09-03T11:58:18;25.90;77.90
59148;DHT22;44930;52.878;6.168;2022-09-03T12:00:45;26.50;76.00
59148;DHT22;44930;52.878;6.168;2022-09-03T12:03:13;26.10;75.20
59148;DHT22;44930;52.878;6.168;2022-09-03T12:11:26;26.40;73.80
59148;DHT22;44930;52.878;6.168;2022-09-03T12:14:03;25.80;73.80
59148;DHT22;44930;52.878;6.168;2022-09-03T12:19:28;27.20;75.20
59148;DHT22;44930;52.878;6.168;2022-09-03T12:21:56;26.20;75.10
59148;DHT22;44930;52.878;6.168;2022-09-03T12:24:23;25.80;75.20
59148;DHT22;44930;52.878;6.168;2022-09-03T12:26:50;26.70;75.80
59148;DHT22;44930;52.878;6.168;2022-09-03T12:29:22;26.30;74.80
59148;DHT22;44930;52.878;6.168;2022-09-03T12:31:49;27.60;75.90
59148;DHT22;44930;52.878;6.168;2022-09-03T12:34:17;28.30;74.90
59148;DHT22;44930;52.878;6.168;2022-09-03T12:36:45;27.10;74.40
59148;DHT22;44930;52.878;6.168;2022-09-03T12:39:20;25.80;73.50
59148;DHT22;44930;52.878;6.168;2022-09-03T12:47:06;27.00;73.80
59148;DHT22;44930;52.878;6.168;2022-09-03T12:49:37;26.60;73.20
59148;DHT22;44930;52.878;6.168;2022-09-03T12:52:18;26.50;72.80
59148;DHT22;44930;52.878;6.168;2022-09-03T12:57:21;27.40;73.70
59148;DHT22;44930;52.878;6.168;2022-09-03T12:59:51;26.50;72.90
59148;DHT22;44930;52.878;6.168;2022-09-03T13:02:27;27.00;73.50
59148;DHT22;44930;52.878;6.168;2022-09-03T13:04:55;27.90;73.30
59148;DHT22;44930;52.878;6.168;2022-09-03T13:07:22;26.60;72.10
59148;DHT22;44930;52.878;6.168;2022-09-03T13:09:50;27.00;72.20
59148;DHT22;44930;52.878;6.168;2022-09-03T13:12:28;28.20;73.50
59148;DHT22;44930;52.878;6.168;2022-09-03T13:14:54;26.30;72.10
59148;DHT22;44930;52.878;6.168;2022-09-03T13:22:43;27.30;72.00
59148;DHT22;44930;52.878;6.168;2022-09-03T13:25:18;26.70;70.10
59148;DHT22;44930;52.878;6.168;2022-09-03T13:28:14;26.80;70.10
59148;DHT22;44930;52.878;6.168;2022-09-03T13:33:40;26.70;71.30
59148;DHT22;44930;52.878;6.168;2022-09-03T13:36:19;27.50;71.40
59148;DHT22;44930;52.878;6.168;2022-09-03T13:39:01;27.10;72.20
59148;DHT22;44930;52.878;6.168;2022-09-03T13:41:42;27.20;70.10
59148;DHT22;44930;52.878;6.168;2022-09-03T13:46:55;27.70;71.50
59148;DHT22;44930;52.878;6.168;2022-09-03T13:49:42;27.10;69.10
59148;DHT22;44930;52.878;6.168;2022-09-03T13:52:39;27.50;69.10
59148;DHT22;44930;52.878;6.168;2022-09-03T13:58:04;27.60;69.70
59148;DHT22;44930;52.878;6.168;2022-09-03T14:03:51;27.50;69.30
59148;DHT22;44930;52.878;6.168;2022-09-03T14:06:43;28.10;71.70
59148;DHT22;44930;52.878;6.168;2022-09-03T14:09:38;27.80;69.60
59148;DHT22;44930;52.878;6.168;2022-09-03T14:12:28;28.20;68.80
59148;DHT22;44930;52.878;6.168;2022-09-03T14:15:04;28.10;70.40
59148;DHT22;44930;52.878;6.168;2022-09-03T14:18:02;28.20;68.50
59148;DHT22;44930;52.878;6.168;2022-09-03T14:20:53;27.90;68.30
59148;DHT22;44930;52.878;6.168;2022-09-03T14:26:17;27.90;68.60
59148;DHT22;44930;52.878;6.168;2022-09-03T14:28:48;27.90;70.00
59148;DHT22;44930;52.878;6.168;2022-09-03T14:34:16;28.60;70.10
59148;DHT22;44930;52.878;6.168;2022-09-03T14:39:53;28.00;68.70
59148;DHT22;44930;52.878;6.168;2022-09-03T14:42:51;28.30;68.30
59148;DHT22;44930;52.878;6.168;2022-09-03T14:51:07;28.60;68.10
59148;DHT22;44930;52.878;6.168;2022-09-03T15:01:11;27.70;69.20
59148;DHT22;44930;52.878;6.168;2022-09-03T15:04:25;28.30;69.80
59148;DHT22;44930;52.878;6.168;2022-09-03T15:10:11;28.10;69.00
59148;DHT22;44930;52.878;6.168;2022-09-03T15:12:43;27.60;68.20
59148;DHT22;44930;52.878;6.168;2022-09-03T15:15:17;28.10;69.20
59148;DHT22;44930;52.878;6.168;2022-09-03T15:18:16;28.70;69.10
59148;DHT22;44930;52.878;6.168;2022-09-03T15:34:12;30.50;66.20
59148;DHT22;44930;52.878;6.168;2022-09-03T15:36:42;30.30;64.80
59148;DHT22;44930;52.878;6.168;2022-09-03T15:39:14;30.50;65.40
59148;DHT22;44930;52.878;6.168;2022-09-03T15:41:55;30.40;65.30
59148;DHT22;44930;52.878;6.168;2022-09-03T15:44:23;30.70;66.30
59148;DHT22;44930;52.878;6.168;2022-09-03T15:47:00;29.90;66.40
59148;DHT22;44930;52.878;6.168;2022-09-03T15:49:57;29.80;65.90
59148;DHT22;44930;52.878;6.168;2022-09-03T15:52:36;29.40;64.60
59148;DHT22;44930;52.878;6.168;2022-09-03T15:55:22;30.10;66.00
59148;DHT22;44930;52.878;6.168;2022-09-03T15:58:25;29.40;65.70
59148;DHT22;44930;52.878;6.168;2022-09-03T16:03:48;28.90;66.70
59148;DHT22;44930;52.878;6.168;2022-09-03T16:06:53;28.00;68.70
59148;DHT22;44930;52.878;6.168;2022-09-03T16:18:23;26.90;69.80
59148;DHT22;44930;52.878;6.168;2022-09-03T16:21:08;26.40;71.50
59148;DHT22;44930;52.878;6.168;2022-09-03T16:23:55;26.50;70.40
59148;DHT22;44930;52.878;6.168;2022-09-03T16:26:39;26.50;72.50
59148;DHT22;44930;52.878;6.168;2022-09-03T16:29:16;27.70;73.30
59148;DHT22;44930;52.878;6.168;2022-09-03T16:32:06;26.20;71.10
59148;DHT22;44930;52.878;6.168;2022-09-03T16:34:52;26.30;71.70
59148;DHT22;44930;52.878;6.168;2022-09-03T16:43:32;26.00;72.20
59148;DHT22;44930;52.878;6.168;2022-09-03T16:50:22;25.60;72.90
59148;DHT22;44930;52.878;6.168;2022-09-03T16:52:54;25.40;73.10
59148;DHT22;44930;52.878;6.168;2022-09-03T16:55:30;25.50;74.10
59148;DHT22;44930;52.878;6.168;2022-09-03T17:01:08;25.50;75.30
59148;DHT22;44930;52.878;6.168;2022-09-03T17:04:03;25.60;74.50
59148;DHT22;44930;52.878;6.168;2022-09-03T17:12:04;25.60;74.70
59148;DHT22;44930;52.878;6.168;2022-09-03T17:18:09;25.00;74.80
59148;DHT22;44930;52.878;6.168;2022-09-03T17:23:54;24.70;74.90
59148;DHT22;44930;52.878;6.168;2022-09-03T17:26:50;25.00;75.40
59148;DHT22;44930;52.878;6.168;2022-09-03T17:35:04;24.90;76.20
59148;DHT22;44930;52.878;6.168;2022-09-03T17:37:54;25.90;78.40
59148;DHT22;44930;52.878;6.168;2022-09-03T17:40:35;25.00;76.80
59148;DHT22;44930;52.878;6.168;2022-09-03T17:43:39;24.50;76.80
59148;DHT22;44930;52.878;6.168;2022-09-03T17:46:10;24.80;77.40
59148;DHT22;44930;52.878;6.168;2022-09-03T17:48:42;24.80;78.30
59148;DHT22;44930;52.878;6.168;2022-09-03T17:51:29;24.40;78.30
59148;DHT22;44930;52.878;6.168;2022-09-03T17:54:11;24.30;77.60
59148;DHT22;44930;52.878;6.168;2022-09-03T17:59:40;24.00;77.90
59148;DHT22;44930;52.878;6.168;2022-09-03T18:05:28;24.20;78.70
59148;DHT22;44930;52.878;6.168;2022-09-03T18:08:21;23.80;79.00
59148;DHT22;44930;52.878;6.168;2022-09-03T18:14:06;23.80;81.00
59148;DHT22;44930;52.878;6.168;2022-09-03T18:19:34;23.30;79.50
59148;DHT22;44930;52.878;6.168;2022-09-03T18:22:23;23.50;81.70
59148;DHT22;44930;52.878;6.168;2022-09-03T18:25:11;23.80;81.90
59148;DHT22;44930;52.878;6.168;2022-09-03T18:28:00;23.80;82.40
59148;DHT22;44930;52.878;6.168;2022-09-03T18:30:48;22.90;82.00
59148;DHT22;44930;52.878;6.168;2022-09-03T18:33:32;23.30;81.10
59148;DHT22;44930;52.878;6.168;2022-09-03T18:36:16;22.90;81.20
59148;DHT22;44930;52.878;6.168;2022-09-03T18:39:14;23.30;81.60
59148;DHT22;44930;52.878;6.168;2022-09-03T18:42:30;22.60;83.10
59148;DHT22;44930;52.878;6.168;2022-09-03T18:45:53;22.90;82.60
59148;DHT22;44930;52.878;6.168;2022-09-03T19:01:34;22.30;84.10
59148;DHT22;44930;52.878;6.168;2022-09-03T19:07:46;22.00;86.70
59148;DHT22;44930;52.878;6.168;2022-09-03T19:10:47;22.10;85.80
59148;DHT22;44930;52.878;6.168;2022-09-03T19:13:36;21.50;87.30
59148;DHT22;44930;52.878;6.168;2022-09-03T19:20:02;21.30;87.50
59148;DHT22;44930;52.878;6.168;2022-09-03T19:22:39;21.20;87.20
59148;DHT22;44930;52.878;6.168;2022-09-03T19:25:26;21.40;88.10
59148;DHT22;44930;52.878;6.168;2022-09-03T19:28:18;21.20;87.90
59148;DHT22;44930;52.878;6.168;2022-09-03T19:31:29;21.40;86.90
59148;DHT22;44930;52.878;6.168;2022-09-03T19:37:44;21.50;87.80
59148;DHT22;44930;52.878;6.168;2022-09-03T19:41:06;21.20;88.60
59148;DHT22;44930;52.878;6.168;2022-09-03T19:50:33;21.00;90.80
59148;DHT22;44930;52.878;6.168;2022-09-03T19:53:20;20.40;91.50
59148;DHT22;44930;52.878;6.168;2022-09-03T19:56:09;21.00;91.70
59148;DHT22;44930;52.878;6.168;2022-09-03T19:59:00;20.40;91.10
59148;DHT22;44930;52.878;6.168;2022-09-03T20:01:46;20.60;90.50
59148;DHT22;44930;52.878;6.168;2022-09-03T20:04:35;20.60;90.90
59148;DHT22;44930;52.878;6.168;2022-09-03T20:07:21;20.50;90.90
59148;DHT22;44930;52.878;6.168;2022-09-03T20:10:11;20.90;90.90
59148;DHT22;44930;52.878;6.168;2022-09-03T20:13:08;20.60;90.90
59148;DHT22;44930;52.878;6.168;2022-09-03T20:15:49;20.80;91.30
59148;DHT22;44930;52.878;6.168;2022-09-03T20:19:36;20.80;91.20
59148;DHT22;44930;52.878;6.168;2022-09-03T20:30:21;20.60;90.70
59148;DHT22;44930;52.878;6.168;2022-09-03T20:35:53;20.30;90.70
59148;DHT22;44930;52.878;6.168;2022-09-03T20:41:14;20.70;91.20
59148;DHT22;44930;52.878;6.168;2022-09-03T20:44:07;20.50;91.40
59148;DHT22;44930;52.878;6.168;2022-09-03T20:46:50;20.40;91.30